sensor_id;sensor_type;location;lat;lon;timestamp;P1;durP1;ratioP1;P2;durP2;ratioP2
27303;SDS011;14791;52.392;13.092;2023-09-19T00:00:47;1.30;;;1.20;;
27303;SDS011;14791;52.392;13.092;2023-09-19T00:03:16;0.98;;;0.98;;
27303;SDS011;14791;52.392;13.092;2023-09-19T00:05:45;1.00;;;1.00;;
27303;SDS011;14791;52.392;13.092;2023-09-19T00:08:15;1.20;;;1.20;;
27303;SDS011;14791;52.392;13.092;2023-09-19T00:10:46;1.50;;;1.50;;
27303;SDS011;14791;52.392;13.092;2023-09-19T00:13:15;1.20;;;1.20;;
27303;SDS011;14791;52.392;13.092;2023-09-19T00:15:46;0.88;;;0.88;;
27303;SDS011;14791;52.392;13.092;2023-09-19T00:18:16;1.30;;;1.30;;
27303;SDS011;14791;52.392;13.092;2023-09-19T00:20:48;1.27;;;1.27;;
27303;SDS011;14791;52.392;13.092;2023-09-19T00:23:18;1.27;;;1.27;;
27303;SDS011;14791;52.392;13.092;2023-09-19T00:25:47;1.82;;;1.80;;
27303;SDS011;14791;52.392;13.092;2023-09-19T00:28:17;1.70;;;1.60;;
27303;SDS011;14791;52.392;13.092;2023-09-19T00:30:47;1.30;;;1.30;;
27303;SDS011;14791;52.392;13.092;2023-09-19T00:33:19;1.20;;;1.20;;
27303;SDS011;14791;52.392;13.092;2023-09-19T00:35:48;1.32;;;1.32;;
27303;SDS011;14791;52.392;13.092;2023-09-19T00:38:18;1.15;;;1.15;;
27303;SDS011;14791;52.392;13.092;2023-09-19T00:40:49;1.52;;;1.25;;
27303;SDS011;14791;52.392;13.092;2023-09-19T00:43:19;1.80;;;1.70;;
27303;SDS011;14791;52.392;13.092;2023-09-19T00:45:50;1.00;;;1.00;;
27303;SDS011;14791;52.392;13.092;2023-09-19T00:48:21;1.65;;;1.37;;
27303;SDS011;14791;52.392;13.092;2023-09-19T00:50:51;0.85;;;0.85;;
27303;SDS011;14791;52.392;13.092;2023-09-19T00:53:21;1.42;;;1.42;;
27303;SDS011;14791;52.392;13.092;2023-09-19T00:55:54;1.30;;;1.30;;
27303;SDS011;14791;52.392;13.092;2023-09-19T00:58:23;1.52;;;1.37;;
27303;SDS011;14791;52.392;13.092;2023-09-19T01:00:52;1.30;;;1.20;;
27303;SDS011;14791;52.392;13.092;2023-09-19T01:03:22;1.05;;;1.02;;
27303;SDS011;14791;52.392;13.092;2023-09-19T01:05:51;1.82;;;1.00;;
27303;SDS011;14791;52.392;13.092;2023-09-19T01:08:21;1.05;;;1.05;;
27303;SDS011;14791;52.392;13.092;2023-09-19T01:10:55;1.17;;;1.17;;
27303;SDS011;14791;52.392;13.092;2023-09-19T01:13:29;1.50;;;1.20;;
27303;SDS011;14791;52.392;13.092;2023-09-19T01:16:11;1.05;;;1.05;;
27303;SDS011;14791;52.392;13.092;2023-09-19T01:21:37;0.93;;;0.93;;
27303;SDS011;14791;52.392;13.092;2023-09-19T01:30:10;1.00;;;1.00;;
27303;SDS011;14791;52.392;13.092;2023-09-19T01:32:42;1.02;;;1.02;;
27303;SDS011;14791;52.392;13.092;2023-09-19T01:35:13;1.30;;;1.20;;
27303;SDS011;14791;52.392;13.092;2023-09-19T01:37:42;1.22;;;1.10;;
27303;SDS011;14791;52.392;13.092;2023-09-19T01:40:12;1.77;;;0.98;;
27303;SDS011;14791;52.392;13.092;2023-09-19T01:50:55;1.12;;;1.12;;
27303;SDS011;14791;52.392;13.092;2023-09-19T01:53:34;0.82;;;0.82;;
27303;SDS011;14791;52.392;13.092;2023-09-19T01:56:08;0.98;;;0.98;;
27303;SDS011;14791;52.392;13.092;2023-09-19T01:58:41;1.00;;;0.90;;
27303;SDS011;14791;52.392;13.092;2023-09-19T02:01:13;1.00;;;1.00;;
27303;SDS011;14791;52.392;13.092;2023-09-19T02:03:47;1.15;;;1.00;;
27303;SDS011;14791;52.392;13.092;2023-09-19T02:06:17;1.00;;;1.00;;
27303;SDS011;14791;52.392;13.092;2023-09-19T02:08:48;0.93;;;0.93;;
27303;SDS011;14791;52.392;13.092;2023-09-19T02:11:17;1.20;;;0.90;;
27303;SDS011;14791;52.392;13.092;2023-09-19T02:13:46;0.98;;;0.98;;
27303;SDS011;14791;52.392;13.092;2023-09-19T02:16:16;1.17;;;1.00;;
27303;SDS011;14791;52.392;13.092;2023-09-19T02:18:49;1.40;;;1.00;;
27303;SDS011;14791;52.392;13.092;2023-09-19T02:21:18;1.35;;;0.93;;
27303;SDS011;14791;52.392;13.092;2023-09-19T02:23:48;1.27;;;0.85;;
27303;SDS011;14791;52.392;13.092;2023-09-19T02:26:18;1.10;;;1.02;;
27303;SDS011;14791;52.392;13.092;2023-09-19T02:28:47;1.22;;;1.17;;
27303;SDS011;14791;52.392;13.092;2023-09-19T02:31:16;0.93;;;0.93;;
27303;SDS011;14791;52.392;13.092;2023-09-19T02:33:46;0.85;;;0.85;;
27303;SDS011;14791;52.392;13.092;2023-09-19T02:36:15;1.00;;;1.00;;
27303;SDS011;14791;52.392;13.092;2023-09-19T02:38:44;1.70;;;1.10;;
27303;SDS011;14791;52.392;13.092;2023-09-19T02:41:13;0.72;;;0.72;;
27303;SDS011;14791;52.392;13.092;2023-09-19T02:43:42;1.05;;;1.05;;
27303;SDS011;14791;52.392;13.092;2023-09-19T02:46:11;1.60;;;1.25;;
27303;SDS011;14791;52.392;13.092;2023-09-19T02:48:40;0.98;;;0.98;;
27303;SDS011;14791;52.392;13.092;2023-09-19T02:51:09;1.12;;;1.10;;
27303;SDS011;14791;52.392;13.092;2023-09-19T02:53:38;1.00;;;1.00;;
27303;SDS011;14791;52.392;13.092;2023-09-19T02:56:09;0.80;;;0.80;;
27303;SDS011;14791;52.392;13.092;2023-09-19T02:58:40;0.90;;;0.90;;
27303;SDS011;14791;52.392;13.092;2023-09-19T03:01:09;1.10;;;1.10;;
27303;SDS011;14791;52.392;13.092;2023-09-19T03:03:41;0.95;;;0.95;;
27303;SDS011;14791;52.392;13.092;2023-09-19T03:06:10;0.95;;;0.95;;
27303;SDS011;14791;52.392;13.092;2023-09-19T03:08:40;1.10;;;1.10;;
27303;SDS011;14791;52.392;13.092;2023-09-19T03:11:24;0.90;;;0.90;;
27303;SDS011;14791;52.392;13.092;2023-09-19T03:13:55;0.95;;;0.95;;
27303;SDS011;14791;52.392;13.092;2023-09-19T03:16:25;0.88;;;0.88;;
27303;SDS011;14791;52.392;13.092;2023-09-19T03:18:55;0.82;;;0.82;;
27303;SDS011;14791;52.392;13.092;2023-09-19T03:21:26;0.85;;;0.85;;
27303;SDS011;14791;52.392;13.092;2023-09-19T03:23:57;0.78;;;0.78;;
27303;SDS011;14791;52.392;13.092;2023-09-19T03:26:41;0.90;;;0.90;;
27303;SDS011;14791;52.392;13.092;2023-09-19T03:29:11;0.90;;;0.90;;
27303;SDS011;14791;52.392;13.092;2023-09-19T03:31:41;1.17;;;1.00;;
27303;SDS011;14791;52.392;13.092;2023-09-19T03:34:10;0.72;;;0.72;;
27303;SDS011;14791;52.392;13.092;2023-09-19T03:36:44;1.80;;;0.93;;
27303;SDS011;14791;52.392;13.092;2023-09-19T03:39:13;1.00;;;1.00;;
27303;SDS011;14791;52.392;13.092;2023-09-19T03:41:43;1.00;;;1.00;;
27303;SDS011;14791;52.392;13.092;2023-09-19T03:44:12;0.70;;;0.70;;
27303;SDS011;14791;52.392;13.092;2023-09-19T03:46:42;0.90;;;0.90;;
27303;SDS011;14791;52.392;13.092;2023-09-19T03:49:11;0.88;;;0.88;;
27303;SDS011;14791;52.392;13.092;2023-09-19T03:51:40;0.68;;;0.68;;
27303;SDS011;14791;52.392;13.092;2023-09-19T03:54:09;0.90;;;0.90;;
27303;SDS011;14791;52.392;13.092;2023-09-19T03:56:38;0.72;;;0.72;;
27303;SDS011;14791;52.392;13.092;2023-09-19T03:59:07;0.70;;;0.70;;
27303;SDS011;14791;52.392;13.092;2023-09-19T04:01:36;0.80;;;0.80;;
27303;SDS011;14791;52.392;13.092;2023-09-19T04:04:07;0.80;;;0.80;;
27303;SDS011;14791;52.392;13.092;2023-09-19T04:06:36;0.80;;;0.80;;
27303;SDS011;14791;52.392;13.092;2023-09-19T04:09:05;0.85;;;0.85;;
27303;SDS011;14791;52.392;13.092;2023-09-19T04:11:34;1.00;;;1.00;;
27303;SDS011;14791;52.392;13.092;2023-09-19T04:14:03;0.72;;;0.53;;
27303;SDS011;14791;52.392;13.092;2023-09-19T04:16:32;0.78;;;0.78;;
27303;SDS011;14791;52.392;13.092;2023-09-19T04:19:01;0.82;;;0.72;;
27303;SDS011;14791;52.392;13.092;2023-09-19T04:21:30;1.00;;;0.90;;
27303;SDS011;14791;52.392;13.092;2023-09-19T04:23:59;0.82;;;0.82;;
27303;SDS011;14791;52.392;13.092;2023-09-19T04:26:28;1.10;;;1.00;;
27303;SDS011;14791;52.392;13.092;2023-09-19T04:28:57;0.90;;;0.90;;
27303;SDS011;14791;52.392;13.092;2023-09-19T04:31:28;0.75;;;0.75;;
27303;SDS011;14791;52.392;13.092;2023-09-19T04:33:57;0.90;;;0.90;;
27303;SDS011;14791;52.392;13.092;2023-09-19T04:36:28;1.20;;;0.72;;
27303;SDS011;14791;52.392;13.092;2023-09-19T04:38:56;0.70;;;0.70;;
27303;SDS011;14791;52.392;13.092;2023-09-19T04:41:25;1.27;;;0.72;;
27303;SDS011;14791;52.392;13.092;2023-09-19T04:43:54;0.90;;;0.90;;
27303;SDS011;14791;52.392;13.092;2023-09-19T04:46:23;0.70;;;0.70;;
27303;SDS011;14791;52.392;13.092;2023-09-19T04:48:52;0.60;;;0.60;;
27303;SDS011;14791;52.392;13.092;2023-09-19T04:51:21;1.07;;;1.00;;
27303;SDS011;14791;52.392;13.092;2023-09-19T04:53:50;0.90;;;0.90;;
27303;SDS011;14791;52.392;13.092;2023-09-19T04:56:19;0.78;;;0.78;;
27303;SDS011;14791;52.392;13.092;2023-09-19T04:58:48;0.90;;;0.90;;
27303;SDS011;14791;52.392;13.092;2023-09-19T05:01:17;0.85;;;0.85;;
27303;SDS011;14791;52.392;13.092;2023-09-19T05:03:46;0.95;;;0.93;;
27303;SDS011;14791;52.392;13.092;2023-09-19T05:06:16;1.02;;;1.02;;
27303;SDS011;14791;52.392;13.092;2023-09-19T05:08:48;1.00;;;1.00;;
27303;SDS011;14791;52.392;13.092;2023-09-19T05:11:20;0.68;;;0.68;;
27303;SDS011;14791;52.392;13.092;2023-09-19T05:13:49;1.05;;;1.05;;
27303;SDS011;14791;52.392;13.092;2023-09-19T05:16:20;1.05;;;1.05;;
27303;SDS011;14791;52.392;13.092;2023-09-19T05:18:49;1.07;;;1.07;;
27303;SDS011;14791;52.392;13.092;2023-09-19T05:21:17;0.93;;;0.93;;
27303;SDS011;14791;52.392;13.092;2023-09-19T05:23:47;0.90;;;0.90;;
27303;SDS011;14791;52.392;13.092;2023-09-19T05:26:17;1.00;;;1.00;;
27303;SDS011;14791;52.392;13.092;2023-09-19T05:28:45;0.82;;;0.82;;
27303;SDS011;14791;52.392;13.092;2023-09-19T05:31:17;1.20;;;1.10;;
27303;SDS011;14791;52.392;13.092;2023-09-19T05:33:47;0.98;;;0.98;;
27303;SDS011;14791;52.392;13.092;2023-09-19T05:36:16;1.27;;;1.27;;
27303;SDS011;14791;52.392;13.092;2023-09-19T05:38:45;0.95;;;0.95;;
27303;SDS011;14791;52.392;13.092;2023-09-19T05:41:16;1.10;;;1.10;;
27303;SDS011;14791;52.392;13.092;2023-09-19T05:43:45;1.17;;;0.90;;
27303;SDS011;14791;52.392;13.092;2023-09-19T05:46:15;1.10;;;1.10;;
27303;SDS011;14791;52.392;13.092;2023-09-19T05:48:44;0.88;;;0.88;;
27303;SDS011;14791;52.392;13.092;2023-09-19T05:51:14;1.05;;;1.05;;
27303;SDS011;14791;52.392;13.092;2023-09-19T05:53:44;1.35;;;1.35;;
27303;SDS011;14791;52.392;13.092;2023-09-19T05:56:15;0.95;;;0.95;;
27303;SDS011;14791;52.392;13.092;2023-09-19T05:58:46;1.02;;;1.02;;
27303;SDS011;14791;52.392;13.092;2023-09-19T06:01:14;1.07;;;1.07;;
27303;SDS011;14791;52.392;13.092;2023-09-19T06:03:43;1.22;;;1.22;;
27303;SDS011;14791;52.392;13.092;2023-09-19T06:06:12;1.20;;;1.10;;
27303;SDS011;14791;52.392;13.092;2023-09-19T06:08:41;1.65;;;0.98;;
27303;SDS011;14791;52.392;13.092;2023-09-19T06:11:12;1.00;;;1.00;;
27303;SDS011;14791;52.392;13.092;2023-09-19T06:13:41;1.00;;;1.00;;
27303;SDS011;14791;52.392;13.092;2023-09-19T06:16:10;1.00;;;1.00;;
27303;SDS011;14791;52.392;13.092;2023-09-19T06:18:39;1.10;;;1.10;;
27303;SDS011;14791;52.392;13.092;2023-09-19T06:21:07;1.00;;;1.00;;
27303;SDS011;14791;52.392;13.092;2023-09-19T06:23:37;1.17;;;1.17;;
27303;SDS011;14791;52.392;13.092;2023-09-19T06:26:06;1.00;;;1.00;;
27303;SDS011;14791;52.392;13.092;2023-09-19T06:28:35;1.65;;;0.90;;
27303;SDS011;14791;52.392;13.092;2023-09-19T06:31:04;1.00;;;1.00;;
27303;SDS011;14791;52.392;13.092;2023-09-19T06:33:34;1.35;;;1.05;;
27303;SDS011;14791;52.392;13.092;2023-09-19T06:36:06;1.60;;;1.12;;
27303;SDS011;14791;52.392;13.092;2023-09-19T06:38:35;1.40;;;1.30;;
27303;SDS011;14791;52.392;13.092;2023-09-19T06:41:06;1.27;;;1.25;;
27303;SDS011;14791;52.392;13.092;2023-09-19T06:43:35;1.00;;;1.00;;
27303;SDS011;14791;52.392;13.092;2023-09-19T06:46:04;1.15;;;1.15;;
27303;SDS011;14791;52.392;13.092;2023-09-19T06:48:34;1.22;;;1.20;;
27303;SDS011;14791;52.392;13.092;2023-09-19T06:51:04;0.98;;;0.98;;
27303;SDS011;14791;52.392;13.092;2023-09-19T06:53:33;1.22;;;1.22;;
27303;SDS011;14791;52.392;13.092;2023-09-19T06:56:02;1.00;;;1.00;;
27303;SDS011;14791;52.392;13.092;2023-09-19T06:58:32;1.00;;;1.00;;
27303;SDS011;14791;52.392;13.092;2023-09-19T07:01:02;1.37;;;1.22;;
27303;SDS011;14791;52.392;13.092;2023-09-19T07:03:31;1.32;;;1.30;;
27303;SDS011;14791;52.392;13.092;2023-09-19T07:06:00;1.65;;;1.55;;
27303;SDS011;14791;52.392;13.092;2023-09-19T07:08:31;1.40;;;1.40;;
27303;SDS011;14791;52.392;13.092;2023-09-19T07:11:00;1.70;;;1.60;;
27303;SDS011;14791;52.392;13.092;2023-09-19T07:13:29;2.45;;;1.60;;
27303;SDS011;14791;52.392;13.092;2023-09-19T07:16:00;1.30;;;1.30;;
27303;SDS011;14791;52.392;13.092;2023-09-19T07:18:29;1.20;;;1.20;;
27303;SDS011;14791;52.392;13.092;2023-09-19T07:20:58;1.27;;;1.27;;
27303;SDS011;14791;52.392;13.092;2023-09-19T07:23:31;1.35;;;1.35;;
27303;SDS011;14791;52.392;13.092;2023-09-19T07:26:01;2.12;;;1.87;;
27303;SDS011;14791;52.392;13.092;2023-09-19T07:28:32;1.62;;;1.52;;
27303;SDS011;14791;52.392;13.092;2023-09-19T07:31:02;1.40;;;1.30;;
27303;SDS011;14791;52.392;13.092;2023-09-19T07:33:32;1.35;;;1.25;;
27303;SDS011;14791;52.392;13.092;2023-09-19T07:36:01;1.52;;;1.42;;
27303;SDS011;14791;52.392;13.092;2023-09-19T07:38:30;1.35;;;1.35;;
27303;SDS011;14791;52.392;13.092;2023-09-19T07:41:00;1.20;;;1.20;;
27303;SDS011;14791;52.392;13.092;2023-09-19T07:43:30;2.30;;;1.25;;
27303;SDS011;14791;52.392;13.092;2023-09-19T07:46:06;1.70;;;1.60;;
27303;SDS011;14791;52.392;13.092;2023-09-19T07:48:36;1.60;;;1.50;;
27303;SDS011;14791;52.392;13.092;2023-09-19T07:51:07;1.62;;;1.50;;
27303;SDS011;14791;52.392;13.092;2023-09-19T07:53:37;1.60;;;1.50;;
27303;SDS011;14791;52.392;13.092;2023-09-19T07:56:07;1.40;;;1.40;;
27303;SDS011;14791;52.392;13.092;2023-09-19T07:58:39;1.55;;;1.45;;
27303;SDS011;14791;52.392;13.092;2023-09-19T08:01:11;1.55;;;1.45;;
27303;SDS011;14791;52.392;13.092;2023-09-19T08:03:40;1.60;;;1.50;;
27303;SDS011;14791;52.392;13.092;2023-09-19T08:06:10;1.50;;;1.50;;
27303;SDS011;14791;52.392;13.092;2023-09-19T08:08:41;1.55;;;1.45;;
27303;SDS011;14791;52.392;13.092;2023-09-19T08:11:10;1.80;;;1.70;;
27303;SDS011;14791;52.392;13.092;2023-09-19T08:13:39;1.50;;;1.40;;
27303;SDS011;14791;52.392;13.092;2023-09-19T08:16:10;2.15;;;1.60;;
27303;SDS011;14791;52.392;13.092;2023-09-19T08:18:39;1.87;;;1.62;;
27303;SDS011;14791;52.392;13.092;2023-09-19T08:21:11;1.57;;;1.57;;
27303;SDS011;14791;52.392;13.092;2023-09-19T08:23:41;3.08;;;1.60;;
27303;SDS011;14791;52.392;13.092;2023-09-19T08:26:10;1.22;;;1.22;;
27303;SDS011;14791;52.392;13.092;2023-09-19T08:28:39;1.60;;;1.60;;
27303;SDS011;14791;52.392;13.092;2023-09-19T08:31:08;4.33;;;1.60;;
27303;SDS011;14791;52.392;13.092;2023-09-19T08:33:37;1.72;;;1.57;;
27303;SDS011;14791;52.392;13.092;2023-09-19T08:36:07;1.60;;;1.50;;
27303;SDS011;14791;52.392;13.092;2023-09-19T08:38:36;1.92;;;1.82;;
27303;SDS011;14791;52.392;13.092;2023-09-19T08:41:06;1.30;;;1.30;;
27303;SDS011;14791;52.392;13.092;2023-09-19T08:43:36;1.95;;;1.85;;
27303;SDS011;14791;52.392;13.092;2023-09-19T08:48:44;2.33;;;1.82;;
27303;SDS011;14791;52.392;13.092;2023-09-19T08:51:26;3.35;;;1.92;;
27303;SDS011;14791;52.392;13.092;2023-09-19T08:56:40;1.67;;;1.57;;
27303;SDS011;14791;52.392;13.092;2023-09-19T08:59:11;1.65;;;1.60;;
27303;SDS011;14791;52.392;13.092;2023-09-19T09:01:41;2.87;;;1.87;;
27303;SDS011;14791;52.392;13.092;2023-09-19T09:04:10;1.47;;;1.37;;
27303;SDS011;14791;52.392;13.092;2023-09-19T09:06:41;1.77;;;1.60;;
27303;SDS011;14791;52.392;13.092;2023-09-19T09:09:12;2.10;;;1.80;;
27303;SDS011;14791;52.392;13.092;2023-09-19T09:11:41;1.67;;;1.57;;
27303;SDS011;14791;52.392;13.092;2023-09-19T09:14:10;1.57;;;1.47;;
27303;SDS011;14791;52.392;13.092;2023-09-19T09:16:41;1.90;;;1.80;;
27303;SDS011;14791;52.392;13.092;2023-09-19T09:19:10;2.08;;;1.98;;
27303;SDS011;14791;52.392;13.092;2023-09-19T09:21:39;1.77;;;1.67;;
27303;SDS011;14791;52.392;13.092;2023-09-19T09:26:58;1.77;;;1.67;;
27303;SDS011;14791;52.392;13.092;2023-09-19T09:29:45;1.87;;;1.77;;
27303;SDS011;14791;52.392;13.092;2023-09-19T09:32:22;1.50;;;1.50;;
27303;SDS011;14791;52.392;13.092;2023-09-19T09:35:01;3.05;;;1.95;;
27303;SDS011;14791;52.392;13.092;2023-09-19T09:37:32;1.67;;;1.57;;
27303;SDS011;14791;52.392;13.092;2023-09-19T09:40:01;1.90;;;1.90;;
27303;SDS011;14791;52.392;13.092;2023-09-19T09:42:41;1.72;;;1.62;;
27303;SDS011;14791;52.392;13.092;2023-09-19T09:45:13;1.90;;;1.80;;
27303;SDS011;14791;52.392;13.092;2023-09-19T09:48:03;1.30;;;1.30;;
27303;SDS011;14791;52.392;13.092;2023-09-19T09:50:34;1.70;;;1.60;;
27303;SDS011;14791;52.392;13.092;2023-09-19T09:53:24;1.52;;;1.42;;
27303;SDS011;14791;52.392;13.092;2023-09-19T09:56:03;1.82;;;1.72;;
27303;SDS011;14791;52.392;13.092;2023-09-19T09:58:37;2.05;;;1.72;;
27303;SDS011;14791;52.392;13.092;2023-09-19T10:01:07;2.08;;;2.00;;
27303;SDS011;14791;52.392;13.092;2023-09-19T10:03:38;1.92;;;1.82;;
27303;SDS011;14791;52.392;13.092;2023-09-19T10:06:11;1.87;;;1.77;;
27303;SDS011;14791;52.392;13.092;2023-09-19T10:09:04;1.75;;;1.65;;
27303;SDS011;14791;52.392;13.092;2023-09-19T10:11:46;2.20;;;2.08;;
27303;SDS011;14791;52.392;13.092;2023-09-19T10:14:16;2.62;;;2.20;;
27303;SDS011;14791;52.392;13.092;2023-09-19T10:16:49;1.82;;;1.72;;
27303;SDS011;14791;52.392;13.092;2023-09-19T10:22:29;2.45;;;1.72;;
27303;SDS011;14791;52.392;13.092;2023-09-19T10:24:59;2.15;;;2.00;;
27303;SDS011;14791;52.392;13.092;2023-09-19T10:27:31;1.72;;;1.62;;
27303;SDS011;14791;52.392;13.092;2023-09-19T10:30:07;1.60;;;1.47;;
27303;SDS011;14791;52.392;13.092;2023-09-19T10:32:39;1.77;;;1.67;;
27303;SDS011;14791;52.392;13.092;2023-09-19T10:35:08;2.15;;;2.05;;
27303;SDS011;14791;52.392;13.092;2023-09-19T10:37:40;2.00;;;1.90;;
27303;SDS011;14791;52.392;13.092;2023-09-19T10:40:11;2.05;;;1.95;;
27303;SDS011;14791;52.392;13.092;2023-09-19T10:42:42;2.20;;;2.10;;
27303;SDS011;14791;52.392;13.092;2023-09-19T10:45:14;1.60;;;1.50;;
27303;SDS011;14791;52.392;13.092;2023-09-19T10:47:45;2.05;;;1.85;;
27303;SDS011;14791;52.392;13.092;2023-09-19T10:50:20;1.57;;;1.57;;
27303;SDS011;14791;52.392;13.092;2023-09-19T10:52:50;1.52;;;1.42;;
27303;SDS011;14791;52.392;13.092;2023-09-19T10:55:24;2.20;;;1.92;;
27303;SDS011;14791;52.392;13.092;2023-09-19T10:57:56;2.35;;;1.72;;
27303;SDS011;14791;52.392;13.092;2023-09-19T11:00:27;1.80;;;1.70;;
27303;SDS011;14791;52.392;13.092;2023-09-19T11:11:39;1.47;;;1.47;;
27303;SDS011;14791;52.392;13.092;2023-09-19T11:30:43;2.10;;;1.95;;
27303;SDS011;14791;52.392;13.092;2023-09-19T11:33:19;2.35;;;1.47;;
27303;SDS011;14791;52.392;13.092;2023-09-19T11:36:06;1.22;;;1.05;;
27303;SDS011;14791;52.392;13.092;2023-09-19T11:46:33;1.55;;;1.45;;
27303;SDS011;14791;52.392;13.092;2023-09-19T11:49:07;1.77;;;1.37;;
27303;SDS011;14791;52.392;13.092;2023-09-19T11:51:40;1.72;;;1.62;;
27303;SDS011;14791;52.392;13.092;2023-09-19T11:54:11;1.57;;;1.47;;
27303;SDS011;14791;52.392;13.092;2023-09-19T11:56:49;1.75;;;1.65;;
27303;SDS011;14791;52.392;13.092;2023-09-19T11:59:21;1.52;;;1.42;;
27303;SDS011;14791;52.392;13.092;2023-09-19T12:01:54;1.35;;;1.35;;
27303;SDS011;14791;52.392;13.092;2023-09-19T12:04:37;1.20;;;1.20;;
27303;SDS011;14791;52.392;13.092;2023-09-19T12:07:09;1.60;;;1.50;;
27303;SDS011;14791;52.392;13.092;2023-09-19T12:09:50;1.40;;;1.30;;
27303;SDS011;14791;52.392;13.092;2023-09-19T12:12:27;1.30;;;1.20;;
27303;SDS011;14791;52.392;13.092;2023-09-19T12:14:57;1.20;;;1.20;;
27303;SDS011;14791;52.392;13.092;2023-09-19T12:17:38;2.22;;;1.15;;
27303;SDS011;14791;52.392;13.092;2023-09-19T12:20:11;3.62;;;3.33;;
27303;SDS011;14791;52.392;13.092;2023-09-19T12:22:44;1.62;;;1.52;;
27303;SDS011;14791;52.392;13.092;2023-09-19T12:25:15;1.67;;;1.55;;
27303;SDS011;14791;52.392;13.092;2023-09-19T12:27:45;1.10;;;1.10;;
27303;SDS011;14791;52.392;13.092;2023-09-19T12:30:27;1.52;;;1.42;;
27303;SDS011;14791;52.392;13.092;2023-09-19T12:32:57;1.60;;;1.50;;
27303;SDS011;14791;52.392;13.092;2023-09-19T12:35:27;1.80;;;1.55;;
27303;SDS011;14791;52.392;13.092;2023-09-19T12:37:57;1.52;;;1.42;;
27303;SDS011;14791;52.392;13.092;2023-09-19T12:40:26;1.50;;;1.42;;
27303;SDS011;14791;52.392;13.092;2023-09-19T12:42:56;1.62;;;1.52;;
27303;SDS011;14791;52.392;13.092;2023-09-19T12:45:29;1.30;;;1.30;;
27303;SDS011;14791;52.392;13.092;2023-09-19T12:51:07;1.15;;;1.15;;
27303;SDS011;14791;52.392;13.092;2023-09-19T12:53:40;1.02;;;1.02;;
27303;SDS011;14791;52.392;13.092;2023-09-19T12:56:11;1.07;;;1.05;;
27303;SDS011;14791;52.392;13.092;2023-09-19T12:58:58;1.37;;;1.25;;
27303;SDS011;14791;52.392;13.092;2023-09-19T13:01:29;1.40;;;1.40;;
27303;SDS011;14791;52.392;13.092;2023-09-19T13:04:42;1.15;;;1.10;;
27303;SDS011;14791;52.392;13.092;2023-09-19T13:06:44;1.95;;;1.30;;
27303;SDS011;14791;52.392;13.092;2023-09-19T13:09:16;1.00;;;1.00;;
27303;SDS011;14791;52.392;13.092;2023-09-19T13:11:47;1.00;;;1.00;;
27303;SDS011;14791;52.392;13.092;2023-09-19T13:17:02;1.30;;;1.30;;
27303;SDS011;14791;52.392;13.092;2023-09-19T13:25:08;1.10;;;1.10;;
27303;SDS011;14791;52.392;13.092;2023-09-19T13:27:48;1.47;;;1.00;;
27303;SDS011;14791;52.392;13.092;2023-09-19T13:30:23;1.05;;;1.05;;
27303;SDS011;14791;52.392;13.092;2023-09-19T13:33:04;1.72;;;1.62;;
27303;SDS011;14791;52.392;13.092;2023-09-19T13:35:34;0.95;;;0.95;;
27303;SDS011;14791;52.392;13.092;2023-09-19T13:38:04;1.47;;;1.40;;
27303;SDS011;14791;52.392;13.092;2023-09-19T13:40:35;1.50;;;1.40;;
27303;SDS011;14791;52.392;13.092;2023-09-19T13:43:06;1.20;;;1.20;;
27303;SDS011;14791;52.392;13.092;2023-09-19T13:45:35;1.10;;;1.10;;
27303;SDS011;14791;52.392;13.092;2023-09-19T13:48:04;1.17;;;1.10;;
27303;SDS011;14791;52.392;13.092;2023-09-19T13:50:34;0.98;;;0.98;;
27303;SDS011;14791;52.392;13.092;2023-09-19T13:53:03;2.05;;;1.27;;
27303;SDS011;14791;52.392;13.092;2023-09-19T13:55:32;1.30;;;1.30;;
27303;SDS011;14791;52.392;13.092;2023-09-19T13:58:01;1.42;;;1.32;;
27303;SDS011;14791;52.392;13.092;2023-09-19T14:00:32;0.90;;;0.90;;
27303;SDS011;14791;52.392;13.092;2023-09-19T14:03:01;2.58;;;1.62;;
27303;SDS011;14791;52.392;13.092;2023-09-19T14:05:31;1.67;;;1.62;;
27303;SDS011;14791;52.392;13.092;2023-09-19T14:08:00;1.10;;;1.10;;
27303;SDS011;14791;52.392;13.092;2023-09-19T14:10:30;1.55;;;1.45;;
27303;SDS011;14791;52.392;13.092;2023-09-19T14:12:59;1.10;;;1.10;;
27303;SDS011;14791;52.392;13.092;2023-09-19T14:15:28;1.77;;;1.67;;
27303;SDS011;14791;52.392;13.092;2023-09-19T14:17:57;1.50;;;1.22;;
27303;SDS011;14791;52.392;13.092;2023-09-19T14:20:27;1.52;;;1.42;;
27303;SDS011;14791;52.392;13.092;2023-09-19T14:22:57;2.87;;;1.67;;
27303;SDS011;14791;52.392;13.092;2023-09-19T14:25:27;1.27;;;1.27;;
27303;SDS011;14791;52.392;13.092;2023-09-19T14:27:57;1.50;;;1.42;;
27303;SDS011;14791;52.392;13.092;2023-09-19T14:30:26;1.62;;;1.52;;
27303;SDS011;14791;52.392;13.092;2023-09-19T14:32:55;1.35;;;1.35;;
27303;SDS011;14791;52.392;13.092;2023-09-19T14:35:24;1.42;;;1.42;;
27303;SDS011;14791;52.392;13.092;2023-09-19T14:37:53;2.52;;;1.10;;
27303;SDS011;14791;52.392;13.092;2023-09-19T14:40:22;1.85;;;1.75;;
27303;SDS011;14791;52.392;13.092;2023-09-19T14:42:53;1.22;;;1.22;;
27303;SDS011;14791;52.392;13.092;2023-09-19T14:45:26;1.07;;;1.07;;
27303;SDS011;14791;52.392;13.092;2023-09-19T14:47:55;1.57;;;1.47;;
27303;SDS011;14791;52.392;13.092;2023-09-19T14:50:24;2.10;;;1.45;;
27303;SDS011;14791;52.392;13.092;2023-09-19T14:52:53;1.60;;;1.50;;
27303;SDS011;14791;52.392;13.092;2023-09-19T14:55:23;1.75;;;1.65;;
27303;SDS011;14791;52.392;13.092;2023-09-19T14:57:53;1.60;;;1.50;;
27303;SDS011;14791;52.392;13.092;2023-09-19T15:00:24;1.85;;;1.70;;
27303;SDS011;14791;52.392;13.092;2023-09-19T15:02:54;1.50;;;1.40;;
27303;SDS011;14791;52.392;13.092;2023-09-19T15:05:23;1.30;;;1.30;;
27303;SDS011;14791;52.392;13.092;2023-09-19T15:07:52;1.67;;;1.37;;
27303;SDS011;14791;52.392;13.092;2023-09-19T15:10:23;1.62;;;1.50;;
27303;SDS011;14791;52.392;13.092;2023-09-19T15:12:52;1.98;;;1.50;;
27303;SDS011;14791;52.392;13.092;2023-09-19T15:15:21;1.62;;;1.57;;
27303;SDS011;14791;52.392;13.092;2023-09-19T15:17:50;1.60;;;1.50;;
27303;SDS011;14791;52.392;13.092;2023-09-19T15:20:19;1.45;;;1.40;;
27303;SDS011;14791;52.392;13.092;2023-09-19T15:22:49;1.80;;;1.60;;
27303;SDS011;14791;52.392;13.092;2023-09-19T15:25:18;1.47;;;1.40;;
27303;SDS011;14791;52.392;13.092;2023-09-19T15:27:47;1.72;;;1.62;;
27303;SDS011;14791;52.392;13.092;2023-09-19T15:30:17;1.40;;;1.40;;
27303;SDS011;14791;52.392;13.092;2023-09-19T15:32:46;1.77;;;1.67;;
27303;SDS011;14791;52.392;13.092;2023-09-19T15:35:16;1.70;;;1.60;;
27303;SDS011;14791;52.392;13.092;2023-09-19T15:37:45;1.30;;;1.30;;
27303;SDS011;14791;52.392;13.092;2023-09-19T15:40:13;2.47;;;1.60;;
27303;SDS011;14791;52.392;13.092;2023-09-19T15:42:42;1.87;;;1.80;;
27303;SDS011;14791;52.392;13.092;2023-09-19T15:45:11;1.40;;;1.40;;
27303;SDS011;14791;52.392;13.092;2023-09-19T15:47:42;1.45;;;1.45;;
27303;SDS011;14791;52.392;13.092;2023-09-19T15:50:11;1.82;;;1.77;;
27303;SDS011;14791;52.392;13.092;2023-09-19T15:52:42;1.70;;;1.60;;
27303;SDS011;14791;52.392;13.092;2023-09-19T15:55:12;2.25;;;1.62;;
27303;SDS011;14791;52.392;13.092;2023-09-19T15:57:42;2.10;;;2.00;;
27303;SDS011;14791;52.392;13.092;2023-09-19T16:00:12;1.62;;;1.60;;
27303;SDS011;14791;52.392;13.092;2023-09-19T16:02:44;1.47;;;1.40;;
27303;SDS011;14791;52.392;13.092;2023-09-19T16:05:14;1.95;;;1.77;;
27303;SDS011;14791;52.392;13.092;2023-09-19T16:07:43;1.70;;;1.62;;